Terminal Aerodrome Forecast
Issued by NWS

Home | Current Version | Previous Version | Text Only | Print | Product List | Glossary On
Versions: 1 2 3 4 5 6 7 8 9 10 11 12 13 14 15 16 17 18 19 20 21 22 23 24 25 26
000
FTUS44 KLIX 162330
TAFHUM
TAF
KHUM 162330Z 1700/1724 08008KT P6SM BKN025 BKN140
     FM170900 13008KT P6SM BKN020 OVC035 PROB30 1709/1713 4SM -SHRA
      BKN015
     FM171300 15009KT P6SM BKN025 OVC035 PROB30 1713/1715 2SM SHRA
      BKN015
     FM171800 19011KT 2SM SHRA BKN010 OVC020
     FM171900 19010KT 3SM SHRA BKN010 OVC025
     FM172100 19006KT 4SM SHRA BKN008 OVC030=

USA.gov is the U.S. government's official web portal to all federal, state and local government web resources and services.